Yuma, AZ (85364)

11:25 PM MST on February 08, 2016 (GMT -0700)
Caballero Park | | Change Station
CLOSE
Current Station
Personal Weather Station
Location: Yuma, AZ
Elevation: 200 ft
Nearby Weather Stations

Elev 200 ft 32.67 °N, 114.63 °W | Updated 1 second ago

Clear
Clear
69.8 °F
Feels Like 69.8 °F
N
4.6
Wind Variable Wind from NE
Gusts 4.6 mph

Today
High -- | Low -- °F
--% Chance of Precip.
Yesterday
High -- | Low -- °F
Precip. -- in
Pressure 30.13 in
Visibility 10.0 miles
Clouds Clear
Dew Point 28 °F
Humidity 21%
Rainfall 0.00 in
Snow Depth Not available.
7:28 AM 6:17 PM
New Moon, 1% visible
METAR KNYL 090557Z 34009KT 10SM CLR 21/M06 A3013 RMK AO2 SLP202 LAST RCRNR T02111056 10278 20211 53005
Pressure 30.13 in
Visibility 10.0 miles
Clouds Clear
Dew Point 28 °F
Humidity 21%
Rainfall 0.00 in
Snow Depth Not available.
7:28 AM 6:17 PM
New Moon, 1% visible
METAR KNYL 090557Z 34009KT 10SM CLR 21/M06 A3013 RMK AO2 SLP202 LAST RCRNR T02111056 10278 20211 53005

10-Day Weather Forecast

Almanac

Astronomy

Feb. 08, 2016 Rise Set
Actual Time
Civil Twilight
Nautical Twilight
Astronomical Twilight
Moon
Length of Visible Light
Length of Day
Tomorrow will be .
, % of the Moon is Illuminated

Today's Extremes

State Highs State Lows

Community

WunderPhotos

Upload Photos

1,891,571 photos uploaded!

WunderBlog® & News

Nearby

Air Quality

  Air Quality AQ Index Pollutant
Not available.

Snow Depth

Station Depth Elevation

Earthquake Activity

City Distance Mag. Time & Date
Minimum magnitude displayed is 2.5.

Coastal Water Temperatures

Place Temperature

Stations

Nearby Weather Stations

Station Location Temp. Windchill Dew Point Humidity Wind Precip. Elev Updated Type
                   

Watches & Warnings

There are currently no watches in effect.